createdAt,value
2022-10-07T00:01:02.179Z,102125.94
2022-10-07T00:03:30.286Z,102114.63
2022-10-07T00:06:07.032Z,102110.28
2022-10-07T00:08:39.474Z,102115.03
2022-10-07T00:11:10.200Z,102117.06
2022-10-07T00:13:40.587Z,102110.47
2022-10-07T00:16:13.537Z,102110.81
2022-10-07T00:18:41.957Z,102113.09
2022-10-07T00:21:12.035Z,102108.53
2022-10-07T00:23:41.748Z,102110.13
2022-10-07T00:26:11.178Z,102103.34
2022-10-07T00:28:41.077Z,102107.72
2022-10-07T00:31:12.839Z,102104.84
2022-10-07T00:33:40.996Z,102106.47
2022-10-07T00:36:10.843Z,102096.88
2022-10-07T00:38:39.102Z,102101.75
2022-10-07T00:41:16.207Z,102101.13
2022-10-07T00:43:43.646Z,102094.50
2022-10-07T00:46:25.804Z,102086.72
2022-10-07T00:48:54.141Z,102075.88
2022-10-07T00:51:21.422Z,102078.16
2022-10-07T00:53:52.403Z,102075.91
2022-10-07T00:56:19.973Z,102079.47
2022-10-07T00:58:50.307Z,102069.59
2022-10-07T01:01:20.054Z,102066.72
2022-10-07T01:03:49.126Z,102067.38
2022-10-07T01:06:18.241Z,102071.44
2022-10-07T01:08:47.677Z,102067.72
2022-10-07T01:11:17.891Z,102070.00
2022-10-07T01:14:10.185Z,102060.97
2022-10-07T01:17:04.497Z,102055.25
2022-10-07T01:19:55.804Z,102058.50
2022-10-07T01:22:40.735Z,102050.78
2022-10-07T01:25:32.231Z,102051.59
2022-10-07T01:28:22.255Z,102045.47
2022-10-07T01:30:54.821Z,102046.59
2022-10-07T01:33:27.973Z,102042.09
2022-10-07T01:36:00.050Z,102040.63
2022-10-07T01:38:28.348Z,102039.19
2022-10-07T01:41:08.311Z,102035.63
2022-10-07T01:43:38.527Z,102040.97
2022-10-07T01:46:17.294Z,102038.88
2022-10-07T01:48:46.572Z,102031.72
2022-10-07T01:51:23.363Z,102031.13
2022-10-07T01:54:02.492Z,102028.22
2022-10-07T01:56:37.259Z,102030.13
2022-10-07T01:59:19.933Z,102026.59
2022-10-07T02:02:06.784Z,102029.50
2022-10-07T02:04:47.055Z,102011.88
2022-10-07T02:07:18.851Z,102010.91
2022-10-07T02:10:03.664Z,102005.09
2022-10-07T02:12:52.487Z,102001.38
2022-10-07T02:15:30.724Z,102000.72
2022-10-07T02:18:03.489Z,101993.63
2022-10-07T02:20:34.850Z,101993.47
2022-10-07T02:23:08.371Z,101994.09
2022-10-07T02:25:42.696Z,101992.81
2022-10-07T02:28:12.918Z,101988.47
2022-10-07T02:30:43.515Z,101993.31
2022-10-07T02:33:12.347Z,101992.50
2022-10-07T02:35:44.074Z,101988.66
2022-10-07T02:38:14.938Z,101990.72
2022-10-07T02:40:52.731Z,101989.44
2022-10-07T02:43:53.459Z,101985.56
2022-10-07T02:46:26.600Z,101985.25
2022-10-07T02:49:08.306Z,101990.44
2022-10-07T02:51:46.569Z,101987.34
2022-10-07T02:54:21.537Z,101982.19
2022-10-07T02:56:50.685Z,101969.91
2022-10-07T02:59:19.578Z,101972.34
2022-10-07T03:01:50.379Z,101972.97
2022-10-07T03:04:18.740Z,101968.28
2022-10-07T03:06:46.153Z,101973.94
2022-10-07T05:25:02.133Z,101946.72
2022-10-07T05:27:29.919Z,101953.94
2022-10-07T05:29:57.454Z,101959.59
2022-10-07T05:32:25.922Z,101955.41
2022-10-07T05:34:55.907Z,101958.00
2022-10-07T05:37:23.465Z,101954.91
2022-10-07T05:39:51.919Z,101949.28
2022-10-07T05:42:21.022Z,101956.69
2022-10-07T05:44:55.691Z,101957.66
2022-10-07T05:47:24.095Z,101946.38
2022-10-07T05:49:56.355Z,101945.72
2022-10-07T05:52:24.201Z,101947.03
2022-10-07T05:54:52.605Z,101948.31
2022-10-07T05:57:20.877Z,101942.81
2022-10-07T05:59:49.497Z,101942.69
2022-10-07T06:02:18.854Z,101937.25
2022-10-07T06:04:48.806Z,101936.81
2022-10-07T06:07:22.083Z,101932.59
2022-10-07T06:10:10.430Z,101930.59
2022-10-07T06:12:56.983Z,101931.97
2022-10-07T06:15:24.375Z,101926.88
2022-10-07T06:17:51.921Z,101926.06
2022-10-07T06:20:20.392Z,101930.34
2022-10-07T06:22:49.544Z,101929.34
2022-10-07T06:25:18.841Z,101932.69
2022-10-07T06:27:52.805Z,101934.03
2022-10-07T06:30:21.667Z,101933.38
2022-10-07T06:32:49.249Z,101934.41
2022-10-07T06:35:17.265Z,101938.97
2022-10-07T06:37:44.814Z,101939.81
2022-10-07T06:40:12.442Z,101950.47
2022-10-07T06:42:40.047Z,101945.66
2022-10-07T06:45:32.993Z,101942.88
2022-10-07T06:48:01.114Z,101940.34
2022-10-07T06:50:29.419Z,101938.81
2022-10-07T06:52:57.220Z,101942.94
2022-10-07T06:55:26.846Z,101948.34
2022-10-07T06:57:54.418Z,101938.31
2022-10-07T07:00:21.988Z,101953.78
2022-10-07T07:02:49.848Z,101947.63
2022-10-07T07:05:17.454Z,101949.53
2022-10-07T07:07:46.832Z,101949.41
2022-10-07T07:10:14.940Z,101955.84
2022-10-07T07:12:46.403Z,101955.91
2022-10-07T07:15:14.308Z,101951.47
2022-10-07T07:17:41.747Z,101952.97
2022-10-07T07:20:10.407Z,101964.44
2022-10-07T07:22:39.424Z,101961.66
2022-10-07T07:25:10.100Z,101965.44
2022-10-07T07:27:37.920Z,101962.75
2022-10-07T07:30:06.900Z,101964.13
2022-10-07T07:32:34.215Z,101962.88
2022-10-07T07:35:04.589Z,101966.91
2022-10-07T07:37:33.730Z,101962.19
2022-10-07T07:40:01.169Z,101954.50
2022-10-07T07:42:28.524Z,101956.06
2022-10-07T07:44:57.772Z,101944.53
2022-10-07T07:47:26.691Z,101953.88
2022-10-07T07:49:54.282Z,101957.56
2022-10-07T07:52:27.592Z,101951.81
2022-10-07T07:54:58.980Z,101950.19
2022-10-07T07:57:27.286Z,101941.56
2022-10-07T07:59:55.241Z,101937.06
2022-10-07T08:02:23.429Z,101936.38
2022-10-07T08:04:53.926Z,101933.28
2022-10-07T08:07:22.575Z,101932.16
2022-10-07T08:09:51.051Z,101928.97
2022-10-07T08:12:21.135Z,101929.34
2022-10-07T08:14:49.527Z,101926.94
2022-10-07T08:17:17.530Z,101928.50
2022-10-07T08:19:46.586Z,101923.28
2022-10-07T08:22:17.595Z,101924.16
2022-10-07T08:24:48.493Z,101917.59
2022-10-07T08:27:17.071Z,101928.31
2022-10-07T08:29:44.458Z,101923.13
2022-10-07T08:32:11.816Z,101928.94
2022-10-07T08:34:39.473Z,101920.59
2022-10-07T08:37:06.743Z,101922.06
2022-10-07T08:39:34.046Z,101916.25
2022-10-07T08:42:13.194Z,101918.34
2022-10-07T08:44:44.414Z,101907.63
2022-10-07T08:47:16.067Z,101907.41
2022-10-07T08:50:08.133Z,101908.28
2022-10-07T08:52:41.594Z,101896.06
2022-10-07T08:55:32.485Z,101895.50
2022-10-07T08:58:15.761Z,101893.31
2022-10-07T09:00:58.220Z,101880.31
2022-10-07T09:04:02.796Z,101882.56
2022-10-07T09:06:35.970Z,101875.91
2022-10-07T09:09:12.046Z,101882.84
2022-10-07T09:11:42.831Z,101878.75
2022-10-07T09:14:36.336Z,101873.81
2022-10-07T09:17:15.383Z,101870.75
2022-10-07T09:19:48.038Z,101865.59
2022-10-07T09:22:21.466Z,101857.69
2022-10-07T09:24:49.985Z,101854.47
2022-10-07T09:27:20.122Z,101854.50
2022-10-07T09:29:47.485Z,101852.06
2022-10-07T09:32:18.791Z,101860.34
2022-10-07T09:34:49.313Z,101859.72
2022-10-07T09:37:19.301Z,101857.03
2022-10-07T09:39:50.306Z,101850.81
2022-10-07T09:42:43.207Z,101849.09
2022-10-07T09:45:25.627Z,101842.81
2022-10-07T09:47:56.549Z,101837.72
2022-10-07T09:50:43.947Z,101845.91
2022-10-07T09:53:25.709Z,101842.56
2022-10-07T09:55:55.042Z,101839.78
2022-10-07T09:58:28.223Z,101838.69
2022-10-07T10:01:01.225Z,101837.09
2022-10-07T10:03:31.179Z,101838.34
2022-10-07T10:06:03.031Z,101839.41
2022-10-07T10:08:34.085Z,101836.81
2022-10-07T10:11:04.191Z,101834.09
2022-10-07T10:13:39.243Z,101834.28
2022-10-07T10:16:25.104Z,101828.41
2022-10-07T10:19:02.500Z,101828.75
2022-10-07T10:21:35.722Z,101829.13
2022-10-07T10:24:06.335Z,101818.22
2022-10-07T10:26:58.438Z,101823.75
2022-10-07T10:29:38.902Z,101820.31
2022-10-07T10:32:38.776Z,101813.84
2022-10-07T10:35:32.022Z,101807.13
2022-10-07T10:38:23.804Z,101799.56
2022-10-07T10:41:09.605Z,101793.75
2022-10-07T10:44:00.268Z,101793.69
2022-10-07T10:46:52.493Z,101788.09
2022-10-07T10:49:44.586Z,101786.41
2022-10-07T10:52:40.566Z,101790.72
2022-10-07T10:55:29.142Z,101784.72
2022-10-07T10:58:00.679Z,101780.38
2022-10-07T11:00:47.879Z,101777.94
2022-10-07T11:03:43.086Z,101765.72
2022-10-07T11:06:16.513Z,101756.75
2022-10-07T11:08:47.251Z,101749.03
2022-10-07T11:11:19.980Z,101743.22
2022-10-07T11:13:54.546Z,101741.19
2022-10-07T11:16:27.900Z,101731.41
2022-10-07T11:19:01.473Z,101728.25
2022-10-07T11:21:41.969Z,101722.38
2022-10-07T11:24:27.551Z,101724.75
2022-10-07T11:27:07.826Z,101715.03
2022-10-07T11:30:08.195Z,101708.19
2022-10-07T11:32:45.768Z,101714.94
2022-10-07T11:35:25.699Z,101708.72
2022-10-07T11:38:04.880Z,101696.00
2022-10-07T11:40:34.896Z,101693.44
2022-10-07T11:43:08.984Z,101690.94
2022-10-07T11:45:44.817Z,101672.28
2022-10-07T11:48:19.355Z,101680.94
2022-10-07T11:50:55.905Z,101676.28
2022-10-07T11:53:30.835Z,101671.66
2022-10-07T11:56:04.673Z,101670.09
2022-10-07T11:58:37.530Z,101663.25
2022-10-07T12:01:26.283Z,101657.13
2022-10-07T12:04:15.359Z,101654.69
2022-10-07T12:07:20.204Z,101654.22
2022-10-07T12:10:03.591Z,101640.00
2022-10-07T12:12:43.002Z,101631.03
2022-10-07T12:15:25.659Z,101628.81
2022-10-07T12:18:20.248Z,101625.56
2022-10-07T12:20:50.557Z,101621.41
2022-10-07T12:23:20.584Z,101612.91
2022-10-07T12:26:31.024Z,101616.69
2022-10-07T12:28:58.890Z,101603.78
2022-10-07T12:31:26.291Z,101605.56
2022-10-07T12:34:28.482Z,101595.94
2022-10-07T12:37:34.257Z,101584.00
2022-10-07T12:40:17.863Z,101592.16
2022-10-07T12:42:53.469Z,101580.03
2022-10-07T12:45:24.219Z,101584.13
2022-10-07T12:47:56.764Z,101573.31
2022-10-07T12:50:25.607Z,101573.13
2022-10-07T12:52:56.678Z,101569.66
2022-10-07T12:55:29.690Z,101574.28
2022-10-07T12:58:18.469Z,101573.50
2022-10-07T13:00:59.926Z,101565.28
2022-10-07T13:04:13.853Z,101565.31
2022-10-07T13:07:10.671Z,101566.47
2022-10-07T13:10:00.021Z,101554.28
2022-10-07T13:12:52.242Z,101553.44
2022-10-07T13:15:41.269Z,101556.53
2022-10-07T13:18:40.467Z,101542.94
2022-10-07T13:21:12.862Z,101546.31
2022-10-07T13:23:40.340Z,101546.78
2022-10-07T13:26:07.781Z,101544.00
2022-10-07T13:28:47.180Z,101534.66
2022-10-07T13:31:18.697Z,101538.22
2022-10-07T13:33:46.502Z,101527.25
2022-10-07T13:36:23.639Z,101529.97
2022-10-07T13:39:09.952Z,101530.19
2022-10-07T13:41:39.344Z,101529.56
2022-10-07T13:44:06.767Z,101527.78
2022-10-07T13:46:38.255Z,101531.81
2022-10-07T13:49:06.553Z,101521.97
2022-10-07T13:51:38.136Z,101517.13
2022-10-07T13:54:27.766Z,101517.50
2022-10-07T13:56:55.410Z,101509.59
2022-10-07T13:59:23.537Z,101517.50
2022-10-07T14:01:53.767Z,101513.56
2022-10-07T14:04:33.259Z,101510.44
2022-10-07T14:07:12.681Z,101514.44
2022-10-07T14:09:50.279Z,101498.63
2022-10-07T14:12:22.407Z,101495.25
2022-10-07T14:14:55.899Z,101497.31
2022-10-07T14:17:56.697Z,101491.41
2022-10-07T14:20:33.442Z,101488.25
2022-10-07T14:23:05.473Z,101490.19
2022-10-07T14:25:52.185Z,101477.00
2022-10-07T14:28:25.359Z,101478.25
2022-10-07T14:31:41.631Z,101475.03
2022-10-07T14:34:35.980Z,101480.59
2022-10-07T14:37:10.786Z,101470.84
2022-10-07T14:39:39.499Z,101473.69
2022-10-07T14:42:13.890Z,101461.69
2022-10-07T14:44:44.978Z,101457.81
2022-10-07T14:47:13.858Z,101459.38
2022-10-07T14:49:44.646Z,101457.50
2022-10-07T14:52:31.498Z,101455.16
2022-10-07T14:55:03.839Z,101461.88
2022-10-07T14:57:31.308Z,101457.09
2022-10-07T14:59:58.739Z,101453.16
2022-10-07T15:02:26.510Z,101454.78
2022-10-07T15:04:53.936Z,101451.69
2022-10-07T15:07:21.544Z,101445.75
2022-10-07T15:09:48.839Z,101449.69
2022-10-07T15:12:16.590Z,101442.91
2022-10-07T15:14:43.959Z,101440.97
2022-10-07T15:17:12.202Z,101438.13
2022-10-07T15:19:42.137Z,101435.38
2022-10-07T15:22:09.468Z,101430.19
2022-10-07T15:24:38.494Z,101434.53
2022-10-07T15:27:07.180Z,101427.41
2022-10-07T15:29:34.443Z,101427.41
2022-10-07T15:32:04.269Z,101428.59
2022-10-07T15:34:31.715Z,101429.03
2022-10-07T15:37:00.748Z,101419.06
2022-10-07T15:39:29.480Z,101417.84
2022-10-07T15:41:56.876Z,101423.84
2022-10-07T15:44:24.252Z,101417.06
2022-10-07T15:46:54.466Z,101425.03
2022-10-07T15:49:22.253Z,101419.88
2022-10-07T15:51:50.043Z,101423.84
2022-10-07T15:54:17.634Z,101418.28
2022-10-07T15:56:45.274Z,101417.88
2022-10-07T15:59:12.623Z,101412.75
2022-10-07T16:01:40.026Z,101423.09
2022-10-07T16:04:11.934Z,101412.78
2022-10-07T16:06:39.466Z,101421.16
2022-10-07T16:09:07.049Z,101422.72
2022-10-07T16:11:34.858Z,101424.38
2022-10-07T16:14:02.325Z,101414.81
2022-10-07T16:16:32.360Z,101420.81
2022-10-07T16:19:00.703Z,101414.03
2022-10-07T16:21:31.405Z,101407.72
2022-10-07T16:24:15.394Z,101411.66
2022-10-07T16:26:44.393Z,101407.31
2022-10-07T16:29:38.486Z,101411.25
2022-10-07T16:32:10.804Z,101410.47
2022-10-07T16:34:39.399Z,101409.25
2022-10-07T16:37:06.779Z,101412.81
2022-10-07T16:39:34.134Z,101406.06
2022-10-07T16:42:01.605Z,101408.41
2022-10-07T16:44:29.621Z,101415.13
2022-10-07T16:46:58.032Z,101413.56
2022-10-07T16:49:27.546Z,101417.09
2022-10-07T16:51:55.487Z,101403.97
2022-10-07T16:54:22.844Z,101409.13
2022-10-07T16:56:52.531Z,101410.28
2022-10-07T16:59:23.620Z,101410.69
2022-10-07T17:01:56.918Z,101402.72
2022-10-07T17:04:25.497Z,101416.91
2022-10-07T17:06:54.120Z,101417.97
2022-10-07T17:09:24.483Z,101411.53
2022-10-07T17:11:51.940Z,101419.75
2022-10-07T17:14:21.203Z,101414.88
2022-10-07T17:16:51.070Z,101419.59
2022-10-07T17:19:21.222Z,101415.31
2022-10-07T17:21:49.861Z,101420.81
2022-10-07T17:24:18.354Z,101423.56
2022-10-07T17:26:46.361Z,101427.28
2022-10-07T17:29:18.098Z,101429.81
2022-10-07T17:31:51.030Z,101428.94
2022-10-07T17:34:20.149Z,101437.88
2022-10-07T17:36:48.402Z,101440.38
2022-10-07T17:39:17.358Z,101441.91
2022-10-07T17:41:44.947Z,101440.06
2022-10-07T17:44:13.107Z,101435.94
2022-10-07T17:46:41.513Z,101433.06
2022-10-07T17:49:13.481Z,101438.56
2022-10-07T17:51:43.132Z,101444.44
2022-10-07T17:54:12.628Z,101445.41
2022-10-07T17:56:40.585Z,101443.19
2022-10-07T17:59:07.948Z,101441.38
2022-10-07T18:01:35.813Z,101446.72
2022-10-07T18:04:07.735Z,101449.84
2022-10-07T18:06:36.246Z,101448.22
2022-10-07T18:09:09.188Z,101449.91
2022-10-07T18:11:55.342Z,101446.22
2022-10-07T18:14:41.166Z,101442.69
2022-10-07T18:17:10.493Z,101449.47
2022-10-07T18:19:39.770Z,101451.09
2022-10-07T18:22:07.941Z,101442.41
2022-10-07T18:24:35.327Z,101442.69
2022-10-07T18:27:02.848Z,101445.06
2022-10-07T18:29:33.950Z,101448.81
2022-10-07T18:32:01.971Z,101446.66
2022-10-07T18:34:29.329Z,101454.66
2022-10-07T18:36:57.432Z,101444.41
2022-10-07T18:39:27.686Z,101442.44
2022-10-07T18:41:56.072Z,101447.69
2022-10-07T18:44:23.409Z,101449.63
2022-10-07T18:46:51.180Z,101449.66
2022-10-07T18:49:18.514Z,101452.31
2022-10-07T18:51:47.219Z,101447.09
2022-10-07T18:54:14.722Z,101444.75
2022-10-07T18:56:42.053Z,101448.00
2022-10-07T18:59:13.065Z,101446.41
2022-10-07T19:01:45.382Z,101441.19
2022-10-07T19:04:16.562Z,101443.59
2022-10-07T19:06:45.261Z,101441.84
2022-10-07T19:09:16.911Z,101443.75
2022-10-07T19:11:44.912Z,101446.28
2022-10-07T19:14:12.523Z,101449.41
2022-10-07T19:16:45.593Z,101446.59
2022-10-07T19:19:15.555Z,101447.59
2022-10-07T19:21:46.301Z,101446.88
2022-10-07T19:24:14.846Z,101440.47
2022-10-07T19:26:45.773Z,101444.56
2022-10-07T19:29:13.910Z,101444.69
2022-10-07T19:31:43.936Z,101441.44
2022-10-07T19:34:17.628Z,101442.59
2022-10-07T19:36:48.364Z,101438.22
2022-10-07T19:39:20.944Z,101440.84
2022-10-07T19:41:49.428Z,101449.63
2022-10-07T19:44:17.065Z,101443.31
2022-10-07T19:46:44.595Z,101444.78
2022-10-07T19:49:11.985Z,101446.59
2022-10-07T19:51:41.924Z,101445.41
2022-10-07T19:54:11.928Z,101454.72
2022-10-07T19:56:42.327Z,101453.41
2022-10-07T19:59:12.068Z,101457.03
2022-10-07T20:01:42.883Z,101448.63
2022-10-07T20:04:15.929Z,101449.63
2022-10-07T20:06:44.340Z,101454.47
2022-10-07T20:09:16.698Z,101448.19
2022-10-07T20:11:44.563Z,101458.50
2022-10-07T20:14:12.310Z,101456.13
2022-10-07T20:16:39.722Z,101461.03
2022-10-07T20:19:11.021Z,101460.09
2022-10-07T20:21:38.604Z,101460.66
2022-10-07T20:24:07.489Z,101459.78
2022-10-07T20:26:37.045Z,101467.88
2022-10-07T20:29:06.133Z,101462.63
2022-10-07T20:31:36.162Z,101461.84
2022-10-07T20:34:03.599Z,101459.25
2022-10-07T20:36:33.443Z,101457.66
2022-10-07T20:39:22.445Z,101458.78
2022-10-07T20:42:09.530Z,101466.44
2022-10-07T20:44:37.150Z,101464.13
2022-10-07T20:47:06.338Z,101459.50
2022-10-07T20:49:35.152Z,101461.38
2022-10-07T20:52:07.016Z,101465.72
2022-10-07T20:54:34.336Z,101459.94
2022-10-07T20:57:01.660Z,101460.03
2022-10-07T20:59:32.695Z,101462.31
2022-10-07T21:02:03.890Z,101462.78
2022-10-07T21:04:33.780Z,101466.47
2022-10-07T21:07:01.746Z,101460.53
2022-10-07T21:09:29.114Z,101457.47
2022-10-07T21:11:57.789Z,101455.75
2022-10-07T21:14:25.150Z,101458.41
2022-10-07T21:16:53.360Z,101451.50
2022-10-07T21:19:22.602Z,101457.69
2022-10-07T21:21:51.062Z,101455.50
2022-10-07T21:24:18.822Z,101457.47
2022-10-07T21:26:47.012Z,101451.75
2022-10-07T21:29:15.065Z,101456.81
2022-10-07T21:31:42.870Z,101451.38
2022-10-07T21:34:10.289Z,101455.00
2022-10-07T21:36:41.049Z,101456.41
2022-10-07T21:39:09.217Z,101451.81
2022-10-07T21:41:38.709Z,101448.09
2022-10-07T21:44:10.666Z,101447.84
2022-10-07T21:46:40.108Z,101448.19
2022-10-07T21:49:08.055Z,101448.19
2022-10-07T21:51:35.654Z,101446.06
2022-10-07T21:54:03.874Z,101450.53
2022-10-07T21:56:32.795Z,101450.19
2022-10-07T21:59:01.580Z,101454.44
2022-10-07T22:01:29.873Z,101450.34
2022-10-07T22:03:59.624Z,101453.41
2022-10-07T22:06:47.307Z,101448.16
2022-10-07T22:09:15.763Z,101448.25
2022-10-07T22:11:43.158Z,101441.50
2022-10-07T22:14:12.756Z,101436.16
2022-10-07T22:16:40.819Z,101434.38
2022-10-07T22:19:08.301Z,101439.66
2022-10-07T22:21:39.915Z,101428.53
2022-10-07T22:24:08.616Z,101439.19
2022-10-07T22:26:42.145Z,101426.25
2022-10-07T22:29:14.740Z,101426.78
2022-10-07T22:31:42.200Z,101423.25
2022-10-07T22:34:29.623Z,101411.66
2022-10-07T22:36:59.551Z,101417.38
2022-10-07T22:39:28.707Z,101410.53
2022-10-07T22:41:57.346Z,101402.53
2022-10-07T22:44:28.007Z,101400.28
2022-10-07T22:46:56.647Z,101400.91
2022-10-07T22:49:28.780Z,101405.53
2022-10-07T22:51:58.870Z,101403.66
2022-10-07T22:54:26.989Z,101399.22
2022-10-07T22:56:54.650Z,101404.50
2022-10-07T22:59:22.049Z,101394.81
2022-10-07T23:01:49.409Z,101391.16
2022-10-07T23:04:20.381Z,101393.28
2022-10-07T23:06:47.805Z,101390.75
2022-10-07T23:09:15.188Z,101391.31
2022-10-07T23:11:42.541Z,101388.44
2022-10-07T23:14:09.943Z,101375.31
2022-10-07T23:16:37.224Z,101380.16
2022-10-07T23:19:04.570Z,101372.63
2022-10-07T23:21:34.840Z,101374.47
2022-10-07T23:24:07.331Z,101376.00
2022-10-07T23:26:36.230Z,101374.72
2022-10-07T23:29:04.083Z,101372.13
2022-10-07T23:31:32.433Z,101368.91
2022-10-07T23:34:01.860Z,101368.59
2022-10-07T23:36:30.026Z,101363.53
2022-10-07T23:38:59.896Z,101370.63
2022-10-07T23:41:29.833Z,101366.28
2022-10-07T23:43:59.245Z,101362.19
2022-10-07T23:46:27.815Z,101357.13
2022-10-07T23:48:58.716Z,101363.78
2022-10-07T23:51:31.426Z,101359.53
2022-10-07T23:54:00.815Z,101358.38
2022-10-07T23:56:28.832Z,101362.38
2022-10-07T23:58:57.515Z,101351.38
